Time;durP1;ratioP1;P1;durP2;ratioP2;P2;SDS_P1;SDS_P2;PMS_P1;PMS_P2;Temp;Humidity;BMP_temperature;BMP_pressure;BME280_temperature;BME280_humidity;BME280_pressure;Samples;Min_cycle;Max_cycle;Signal;HPM_P1;HPM_P2
2023/07/04 00:01:14;;;;;;;20.70;6.97;;;16.10;97.90;;;;;;5073288;28;20028;-49
2023/07/04 00:03:41;;;;;;;16.95;7.20;;;16.20;97.50;;;;;;5091661;28;20020;-48
2023/07/04 00:06:10;;;;;;;17.35;7.13;;;16.20;97.50;;;;;;5041467;28;20109;-49
2023/07/04 00:08:36;;;;;;;15.57;7.10;;;16.20;97.50;;;;;;4987995;28;20029;-48
2023/07/04 00:11:06;;;;;;;17.35;7.47;;;16.20;97.40;;;;;;5071394;28;20263;-47
2023/07/04 00:13:34;;;;;;;15.95;7.13;;;16.20;97.00;;;;;;5090994;28;20040;-48
2023/07/04 00:16:00;;;;;;;18.80;7.82;;;16.30;97.10;;;;;;5082528;28;20028;-49
2023/07/04 00:18:28;;;;;;;13.93;7.30;;;16.30;97.00;;;;;;4986869;28;20407;-48
2023/07/04 00:20:56;;;;;;;14.98;7.65;;;16.30;97.20;;;;;;4988249;28;20476;-48
2023/07/04 00:23:31;;;;;;;16.70;7.30;;;16.20;97.10;;;;;;4971199;28;20121;-48
2023/07/04 00:25:57;;;;;;;14.30;6.93;;;16.20;97.10;;;;;;4988373;28;20029;-49
2023/07/04 00:28:24;;;;;;;19.25;7.80;;;16.30;97.20;;;;;;5010811;28;20022;-50
2023/07/04 00:30:54;;;;;;;17.30;7.30;;;16.30;96.80;;;;;;5091159;28;20104;-49
2023/07/04 00:33:22;;;;;;;13.65;7.47;;;16.30;96.60;;;;;;5091950;28;20051;-49
2023/07/04 00:35:48;;;;;;;16.35;7.30;;;16.30;96.50;;;;;;5091032;28;20028;-50
2023/07/04 00:38:14;;;;;;;18.10;8.27;;;16.30;96.30;;;;;;5022875;28;20436;-51
2023/07/04 00:40:39;;;;;;;18.92;7.20;;;16.40;95.90;;;;;;4988370;28;20018;-50
2023/07/04 00:43:10;;;;;;;22.40;7.18;;;16.50;95.60;;;;;;4988559;28;20034;-47
2023/07/04 00:45:42;;;;;;;21.55;8.48;;;16.50;95.60;;;;;;4988254;28;20050;-47
2023/07/04 00:48:13;;;;;;;17.52;7.15;;;16.50;95.50;;;;;;4987643;28;20411;-48
2023/07/04 00:50:43;;;;;;;20.42;8.32;;;16.50;95.70;;;;;;4988283;28;20474;-48
2023/07/04 00:53:11;;;;;;;21.10;7.65;;;16.50;95.40;;;;;;4988459;28;20049;-48
2023/07/04 00:55:39;;;;;;;16.48;7.70;;;16.50;95.50;;;;;;4988258;28;20077;-49
2023/07/04 00:58:06;;;;;;;17.83;7.20;;;16.60;95.20;;;;;;5045752;28;20030;-47
2023/07/04 01:00:33;;;;;;;21.40;7.60;;;16.60;95.10;;;;;;4984400;28;20479;-47
2023/07/04 01:03:11;;;;;;;17.33;7.05;;;16.60;94.90;;;;;;4970697;28;20395;-47
2023/07/04 01:06:04;;;;;;;20.67;6.70;;;16.60;94.90;;;;;;4988075;28;20519;-47
2023/07/04 01:08:37;;;;;;;20.70;7.13;;;16.60;94.70;;;;;;4969618;28;20038;-49
2023/07/04 01:11:07;;;;;;;16.65;6.30;;;16.60;94.40;;;;;;4987702;28;20022;-48
2023/07/04 01:13:37;;;;;;;16.98;6.70;;;16.70;94.60;;;;;;4970204;28;20026;-47
2023/07/04 01:16:14;;;;;;;18.95;7.15;;;16.60;94.40;;;;;;4987630;28;20296;-47
2023/07/04 01:18:43;;;;;;;18.98;6.05;;;16.70;94.40;;;;;;5037892;28;20027;-47
2023/07/04 01:21:11;;;;;;;17.80;6.82;;;16.60;94.40;;;;;;4997270;28;20097;-48
2023/07/04 01:23:58;;;;;;;15.55;6.13;;;16.60;94.40;;;;;;4987593;28;20411;-47
2023/07/04 01:26:26;;;;;;;15.18;5.53;;;16.60;94.60;;;;;;4999708;28;20038;-47
2023/07/04 01:28:53;;;;;;;12.77;5.90;;;16.60;94.80;;;;;;5082547;28;20111;-49
2023/07/04 01:31:21;;;;;;;26.27;7.03;;;16.60;94.70;;;;;;4969697;28;20125;-50
2023/07/04 01:33:48;;;;;;;20.42;5.65;;;16.50;94.60;;;;;;4987528;28;20395;-48
2023/07/04 01:36:20;;;;;;;19.98;6.18;;;16.60;94.50;;;;;;4987471;28;20022;-50
2023/07/04 01:38:46;;;;;;;15.75;5.47;;;16.60;94.30;;;;;;4987181;28;20037;-48
2023/07/04 01:41:12;;;;;;;12.23;5.40;;;16.50;94.40;;;;;;4987669;28;20034;-50
2023/07/04 01:43:38;;;;;;;14.80;5.20;;;16.60;94.20;;;;;;4987621;28;20022;-48
2023/07/04 01:46:03;;;;;;;16.98;5.57;;;16.60;94.20;;;;;;4987812;28;20026;-48
2023/07/04 01:48:29;;;;;;;16.02;6.47;;;16.60;94.20;;;;;;4987580;28;20054;-49
2023/07/04 01:50:55;;;;;;;14.15;5.18;;;16.70;94.00;;;;;;4987190;28;20383;-49
2023/07/04 01:53:20;;;;;;;16.27;6.65;;;16.70;94.10;;;;;;4970012;28;20030;-47
2023/07/04 01:55:46;;;;;;;20.73;5.80;;;16.70;94.20;;;;;;4987411;28;20022;-47
2023/07/04 01:58:11;;;;;;;14.35;5.57;;;16.80;93.90;;;;;;5075849;28;20137;-50
2023/07/04 02:00:37;;;;;;;21.30;5.82;;;16.80;94.00;;;;;;5066015;28;20042;-50
2023/07/04 02:03:04;;;;;;;14.90;5.03;;;16.70;94.30;;;;;;4987182;28;20505;-51
2023/07/04 02:05:30;;;;;;;10.13;4.68;;;16.70;95.20;;;;;;4987162;28;20475;-48
2023/07/04 02:07:55;;;;;;;15.32;4.55;;;16.60;96.00;;;;;;4986642;28;20034;-50
2023/07/04 02:10:21;;;;;;;13.57;4.68;;;16.60;96.50;;;;;;4987323;28;20472;-50
2023/07/04 02:12:47;;;;;;;14.02;4.20;;;16.50;96.90;;;;;;4969427;28;20035;-47
2023/07/04 02:15:12;;;;;;;12.85;4.53;;;16.50;97.30;;;;;;4969147;28;20028;-48
2023/07/04 02:17:38;;;;;;;9.77;3.60;;;16.40;97.60;;;;;;4986561;28;20026;-49
2023/07/04 02:20:05;;;;;;;15.38;4.13;;;16.30;97.90;;;;;;4986571;28;20061;-47
2023/07/04 02:22:31;;;;;;;11.20;3.78;;;16.30;98.10;;;;;;4986375;28;20105;-49
2023/07/04 02:24:57;;;;;;;13.73;4.00;;;16.30;98.30;;;;;;4986822;28;20062;-49
2023/07/04 02:27:22;;;;;;;16.23;4.28;;;16.20;98.60;;;;;;5040712;28;20059;-50
2023/07/04 02:29:48;;;;;;;14.48;3.70;;;16.10;99.00;;;;;;5088495;28;20031;-47
2023/07/04 02:32:14;;;;;;;13.23;3.67;;;16.10;99.30;;;;;;5033267;28;20031;-50
2023/07/04 02:34:39;;;;;;;11.10;3.53;;;16.00;99.60;;;;;;4986582;28;20113;-50
2023/07/04 02:37:05;;;;;;;9.43;3.33;;;16.00;99.70;;;;;;4986526;28;20390;-48
2023/07/04 02:39:31;;;;;;;6.80;2.75;;;15.90;99.60;;;;;;4986681;28;20133;-47
2023/07/04 02:41:57;;;;;;;5.43;2.05;;;15.90;99.60;;;;;;4983033;28;20023;-48
2023/07/04 02:44:23;;;;;;;11.85;2.30;;;15.80;99.00;;;;;;4989844;28;20539;-47
2023/07/04 02:46:49;;;;;;;5.32;2.05;;;15.70;98.90;;;;;;4990056;28;20057;-47
2023/07/04 02:49:15;;;;;;;6.80;1.90;;;15.70;98.80;;;;;;4990139;28;20054;-47
2023/07/04 02:51:40;;;;;;;6.68;1.83;;;15.60;98.80;;;;;;4989791;28;20034;-47
2023/07/04 02:54:06;;;;;;;3.13;1.48;;;15.60;98.60;;;;;;4971814;28;20045;-49
2023/07/04 02:56:31;;;;;;;6.88;1.30;;;15.50;98.60;;;;;;5008219;28;20027;-50
2023/07/04 02:58:58;;;;;;;2.53;1.40;;;15.40;98.20;;;;;;5083846;28;20024;-47
2023/07/04 03:01:23;;;;;;;5.22;1.60;;;15.40;98.30;;;;;;4989387;28;20022;-49
2023/07/04 03:03:49;;;;;;;3.72;1.20;;;15.30;98.70;;;;;;4967541;28;20092;-49
2023/07/04 03:06:15;;;;;;;3.22;1.42;;;15.20;98.60;;;;;;4957926;28;20027;-48
2023/07/04 03:08:40;;;;;;;4.18;1.48;;;15.20;99.10;;;;;;4969796;28;20034;-47
2023/07/04 03:11:06;;;;;;;3.47;1.10;;;15.20;99.50;;;;;;4953111;28;20472;-47
2023/07/04 03:13:33;;;;;;;3.33;1.20;;;15.00;99.90;;;;;;4974373;28;20491;-51
2023/07/04 03:15:59;;;;;;;2.03;1.20;;;14.90;99.90;;;;;;4989299;28;20045;-48
2023/07/04 03:18:26;;;;;;;1.77;1.20;;;14.80;99.90;;;;;;4989213;28;20026;-49
2023/07/04 03:20:51;;;;;;;2.08;1.10;;;14.70;99.90;;;;;;4990071;28;20062;-51
2023/07/04 03:23:17;;;;;;;3.35;1.60;;;14.70;99.90;;;;;;4990145;28;20431;-51
2023/07/04 03:25:42;;;;;;;3.40;1.38;;;14.60;99.90;;;;;;4989541;28;20042;-49
2023/07/04 03:28:08;;;;;;;2.80;1.35;;;14.60;99.90;;;;;;5013340;28;20023;-47
2023/07/04 03:30:34;;;;;;;3.70;1.83;;;14.50;99.90;;;;;;5018642;28;20407;-47
2023/07/04 03:32:59;;;;;;;5.18;1.67;;;14.50;99.90;;;;;;4988998;28;20250;-50
2023/07/04 03:35:25;;;;;;;4.25;1.10;;;14.40;99.90;;;;;;4989440;28;20042;-48
2023/07/04 03:37:50;;;;;;;4.00;1.10;;;14.40;99.90;;;;;;4988683;28;20080;-46
2023/07/04 03:40:16;;;;;;;2.33;1.02;;;14.40;99.90;;;;;;4988852;28;20602;-48
2023/07/04 03:42:42;;;;;;;5.43;1.65;;;14.50;99.90;;;;;;4987445;28;20018;-47
2023/07/04 03:45:08;;;;;;;1.88;1.00;;;14.40;99.90;;;;;;5008107;28;20028;-47
2023/07/04 03:47:33;;;;;;;2.70;1.40;;;14.40;99.90;;;;;;5004479;28;20022;-48
2023/07/04 03:49:59;;;;;;;3.22;1.38;;;14.40;99.90;;;;;;4988244;28;20360;-48
2023/07/04 03:52:25;;;;;;;3.17;1.40;;;14.40;99.90;;;;;;4984401;28;20896;-50
2023/07/04 03:54:50;;;;;;;3.08;1.48;;;14.40;99.90;;;;;;4965390;28;20034;-50
2023/07/04 03:57:16;;;;;;;3.97;1.27;;;14.40;99.90;;;;;;4987561;28;20042;-49
2023/07/04 03:59:42;;;;;;;2.03;1.05;;;14.50;99.90;;;;;;4983316;28;20592;-49
2023/07/04 04:02:08;;;;;;;3.95;1.30;;;14.50;99.90;;;;;;4982677;28;20113;-50
2023/07/04 04:04:38;;;;;;;2.33;1.30;;;14.50;99.90;;;;;;4985485;28;20026;-50
2023/07/04 04:07:09;;;;;;;2.35;1.20;;;14.50;99.90;;;;;;4988972;28;20022;-51
2023/07/04 04:09:35;;;;;;;;;;;14.60;99.90;;;;;;4972050;28;20517;-51
2023/07/04 04:12:01;;;;;;;5.30;1.60;;;14.50;99.90;;;;;;4971487;28;20049;-48
2023/07/04 04:14:31;;;;;;;2.75;1.30;;;14.50;99.90;;;;;;5002886;28;20053;-51
2023/07/04 04:16:57;;;;;;;3.47;1.42;;;14.50;99.90;;;;;;5072753;28;20016;-51
2023/07/04 04:19:27;;;;;;;2.55;1.30;;;14.60;99.90;;;;;;5091018;28;20036;-49
2023/07/04 04:21:53;;;;;;;2.33;1.08;;;14.50;99.90;;;;;;5091377;28;20027;-50
2023/07/04 04:24:20;;;;;;;1.52;1.05;;;14.60;99.90;;;;;;5022684;28;20127;-51
2023/07/04 04:26:46;;;;;;;3.88;1.60;;;14.60;99.90;;;;;;4988436;28;20027;-51
2023/07/04 04:29:13;;;;;;;4.53;1.55;;;14.70;99.90;;;;;;4988231;28;20018;-51
2023/07/04 04:31:39;;;;;;;3.40;1.98;;;14.70;99.90;;;;;;4970651;28;20030;-48
2023/07/04 04:34:06;;;;;;;2.00;1.60;;;14.70;99.90;;;;;;4988272;28;20441;-51
2023/07/04 04:36:35;;;;;;;2.75;1.20;;;14.80;99.90;;;;;;4988295;28;20070;-50
2023/07/04 04:39:01;;;;;;;4.20;1.50;;;14.80;99.90;;;;;;4988322;28;20342;-52
2023/07/04 04:41:28;;;;;;;5.60;2.10;;;14.80;99.90;;;;;;4988179;28;20031;-50
2023/07/04 04:43:56;;;;;;;2.90;1.35;;;14.80;99.90;;;;;;4988171;28;20022;-51
2023/07/04 04:46:22;;;;;;;4.70;1.70;;;14.80;99.90;;;;;;5062785;28;20506;-50
2023/07/04 04:48:49;;;;;;;7.82;1.77;;;14.90;99.90;;;;;;5072813;28;20038;-51
2023/07/04 04:51:15;;;;;;;5.95;2.35;;;14.90;99.90;;;;;;5091159;28;20024;-50
2023/07/04 04:53:44;;;;;;;5.72;1.75;;;14.90;99.90;;;;;;5091265;28;20077;-47
2023/07/04 04:56:11;;;;;;;3.50;1.60;;;15.00;99.90;;;;;;4999577;28;20041;-50
2023/07/04 04:58:37;;;;;;;3.88;1.35;;;15.00;99.90;;;;;;4970528;28;20065;-48
2023/07/04 05:01:10;;;;;;;4.38;1.80;;;15.10;99.90;;;;;;4987730;28;20054;-51
2023/07/04 05:03:35;;;;;;;8.05;2.33;;;15.10;99.90;;;;;;5059921;28;20384;-48
2023/07/04 05:06:02;;;;;;;2.10;1.48;;;15.10;99.90;;;;;;5022720;28;20057;-48
2023/07/04 05:08:28;;;;;;;5.88;1.73;;;15.20;99.90;;;;;;4970008;28;20513;-49
2023/07/04 05:11:05;;;;;;;5.05;1.50;;;15.10;99.90;;;;;;4987184;28;20044;-50
2023/07/04 05:13:40;;;;;;;3.90;1.67;;;15.10;99.90;;;;;;4987553;28;20022;-50
2023/07/04 05:16:09;;;;;;;3.17;1.90;;;15.20;99.90;;;;;;5055720;28;20034;-51
2023/07/04 05:18:36;;;;;;;3.05;1.50;;;15.20;99.90;;;;;;5089939;28;20016;-50
2023/07/04 05:21:07;;;;;;;6.53;1.73;;;15.20;99.90;;;;;;5090583;28;20089;-49
2023/07/04 05:23:33;;;;;;;;;;;15.20;99.90;;;;;;5072659;28;20078;-50
2023/07/04 05:26:05;;;;;;;6.35;1.88;;;15.20;99.90;;;;;;5061928;28;19970;-51
2023/07/04 05:28:31;;;;;;;4.63;1.45;;;15.20;99.90;;;;;;4987050;28;20061;-50
2023/07/04 05:31:02;;;;;;;4.22;1.95;;;15.30;99.90;;;;;;4987469;28;20535;-51
2023/07/04 05:33:28;;;;;;;5.45;1.90;;;15.30;99.90;;;;;;4982196;28;20031;-51
2023/07/04 05:36:13;;;;;;;8.20;1.70;;;15.30;99.90;;;;;;4987099;28;20110;-49
2023/07/04 05:38:39;;;;;;;5.38;1.60;;;15.50;99.90;;;;;;4987334;28;20110;-50
2023/07/04 05:41:12;;;;;;;6.65;1.60;;;15.50;99.90;;;;;;4970112;28;20109;-50
2023/07/04 05:43:39;;;;;;;3.95;1.58;;;15.60;99.90;;;;;;4987563;28;20029;-50
2023/07/04 05:46:06;;;;;;;3.72;1.55;;;15.60;99.90;;;;;;5071209;28;20020;-50
2023/07/04 05:48:33;;;;;;;7.15;1.70;;;15.50;99.90;;;;;;4989393;28;20034;-50
2023/07/04 05:51:01;;;;;;;5.32;1.63;;;15.50;99.90;;;;;;5015824;28;20034;-51
2023/07/04 05:53:29;;;;;;;4.53;1.60;;;15.50;99.90;;;;;;4987242;28;20073;-51
2023/07/04 05:56:10;;;;;;;3.75;1.60;;;15.50;99.90;;;;;;4992715;28;20034;-50
2023/07/04 05:58:37;;;;;;;6.47;1.38;;;15.50;99.90;;;;;;4967782;28;20596;-50
2023/07/04 06:01:21;;;;;;;6.03;1.88;;;15.60;99.90;;;;;;4986608;28;20289;-51
2023/07/04 06:03:46;;;;;;;4.28;1.55;;;15.80;99.90;;;;;;4999457;28;20014;-51
2023/07/04 06:06:25;;;;;;;5.55;1.70;;;16.00;99.90;;;;;;5006089;28;20067;-52
2023/07/04 06:08:51;;;;;;;5.80;1.38;;;16.20;99.90;;;;;;4996305;28;20034;-50
2023/07/04 06:11:17;;;;;;;5.70;1.52;;;16.30;99.90;;;;;;4997299;28;20030;-50
2023/07/04 06:13:43;;;;;;;7.40;1.65;;;16.30;99.90;;;;;;4973837;28;20071;-51
2023/07/04 06:16:09;;;;;;;6.38;1.70;;;16.30;99.90;;;;;;5052204;28;20036;-51
2023/07/04 06:18:34;;;;;;;4.85;1.67;;;16.30;99.90;;;;;;4985870;28;20452;-50
2023/07/04 06:21:12;;;;;;;4.57;1.35;;;16.30;99.90;;;;;;4984792;28;20030;-51
2023/07/04 06:23:39;;;;;;;6.53;1.80;;;16.40;99.90;;;;;;4986839;28;20030;-48
2023/07/04 06:26:06;;;;;;;11.32;2.00;;;16.40;99.90;;;;;;4986413;28;20062;-50
2023/07/04 06:28:33;;;;;;;6.22;2.05;;;16.40;99.90;;;;;;4968700;28;20531;-50
2023/07/04 06:31:06;;;;;;;5.60;2.05;;;16.40;99.90;;;;;;4979480;28;20030;-51
2023/07/04 06:33:32;;;;;;;6.60;2.67;;;16.40;99.90;;;;;;4982398;28;20034;-51
2023/07/04 06:35:57;;;;;;;10.70;1.92;;;16.60;99.90;;;;;;4969063;28;20117;-48
2023/07/04 06:38:23;;;;;;;4.10;1.65;;;16.70;99.90;;;;;;4985358;28;20141;-49
2023/07/04 06:40:59;;;;;;;6.95;2.30;;;16.70;99.90;;;;;;4986164;28;20043;-51
2023/07/04 06:43:27;;;;;;;5.88;1.58;;;16.80;99.90;;;;;;4974184;28;20568;-51
2023/07/04 06:45:53;;;;;;;2.88;1.80;;;16.90;99.90;;;;;;4994017;28;20026;-51
2023/07/04 06:48:21;;;;;;;4.80;1.77;;;17.00;99.90;;;;;;4999144;28;20022;-49
2023/07/04 06:50:59;;;;;;;5.15;1.92;;;17.10;99.90;;;;;;4985058;28;20519;-50
2023/07/04 06:53:25;;;;;;;7.57;2.05;;;17.00;99.70;;;;;;4982621;28;20044;-51
2023/07/04 06:55:51;;;;;;;5.50;1.95;;;17.00;99.10;;;;;;4986364;28;20252;-50
2023/07/04 06:58:16;;;;;;;6.13;2.13;;;17.00;99.60;;;;;;4982820;28;20077;-50
2023/07/04 07:00:42;;;;;;;5.20;2.10;;;17.10;99.80;;;;;;4985579;28;20031;-50
2023/07/04 07:03:07;;;;;;;7.53;2.53;;;17.30;99.60;;;;;;4963464;28;20027;-49
2023/07/04 07:05:40;;;;;;;7.72;2.22;;;17.50;99.20;;;;;;4976984;28;20026;-50
2023/07/04 07:08:06;;;;;;;8.52;2.22;;;17.50;99.20;;;;;;4958890;28;20043;-50
2023/07/04 07:10:36;;;;;;;6.38;2.35;;;17.60;99.50;;;;;;4979736;28;20480;-50
2023/07/04 07:13:04;;;;;;;6.50;2.47;;;17.70;99.40;;;;;;5064220;28;20034;-50
2023/07/04 07:15:29;;;;;;;9.82;3.15;;;17.90;99.10;;;;;;5046420;28;20024;-49
2023/07/04 07:17:55;;;;;;;8.05;3.10;;;17.90;99.20;;;;;;5087610;28;20012;-50
2023/07/04 07:20:21;;;;;;;6.75;2.92;;;17.80;98.90;;;;;;5070354;28;20019;-51
2023/07/04 07:22:46;;;;;;;5.57;2.53;;;17.80;98.60;;;;;;4986116;28;20030;-49
2023/07/04 07:25:12;;;;;;;10.60;2.85;;;17.80;98.80;;;;;;4985982;28;20027;-50
2023/07/04 07:27:37;;;;;;;9.27;2.53;;;17.90;99.00;;;;;;4966397;28;20022;-50
2023/07/04 07:30:04;;;;;;;7.88;2.15;;;18.10;99.20;;;;;;4995161;28;20073;-50
2023/07/04 07:32:30;;;;;;;6.30;2.40;;;18.00;98.30;;;;;;4988762;28;20023;-50
2023/07/04 07:34:55;;;;;;;9.27;2.50;;;18.00;98.20;;;;;;4986277;28;20180;-52
2023/07/04 07:37:21;;;;;;;7.10;2.50;;;17.90;98.20;;;;;;4988383;28;20141;-51
2023/07/04 07:39:49;;;;;;;7.90;2.90;;;18.00;98.10;;;;;;4978889;28;20468;-51
2023/07/04 07:42:16;;;;;;;7.90;2.67;;;18.00;97.70;;;;;;4980453;28;20482;-50
2023/07/04 07:44:42;;;;;;;8.20;2.65;;;18.20;97.80;;;;;;4978354;28;20054;-51
2023/07/04 07:47:10;;;;;;;10.13;2.65;;;18.40;97.30;;;;;;4990301;28;20034;-51
2023/07/04 07:49:36;;;;;;;9.38;2.72;;;18.60;96.80;;;;;;4989202;28;20254;-51
2023/07/04 07:52:02;;;;;;;8.50;2.28;;;18.70;96.50;;;;;;4988638;28;20352;-52
2023/07/04 07:54:27;;;;;;;5.63;2.63;;;18.70;96.70;;;;;;4971275;28;20171;-51
2023/07/04 07:56:53;;;;;;;8.23;2.90;;;18.80;96.00;;;;;;4986416;28;20041;-50
2023/07/04 07:59:19;;;;;;;7.70;2.50;;;18.70;95.40;;;;;;4983709;28;20027;-51
2023/07/04 08:01:44;;;;;;;4.68;2.30;;;18.60;94.60;;;;;;4979871;28;20313;-52
2023/07/04 08:04:10;;;;;;;4.70;2.53;;;18.50;95.20;;;;;;4980386;28;20030;-51
2023/07/04 08:06:35;;;;;;;10.52;3.05;;;18.60;96.20;;;;;;5004144;28;20111;-52
2023/07/04 08:09:03;;;;;;;7.22;3.38;;;18.40;95.90;;;;;;4978316;28;20077;-52
2023/07/04 08:11:30;;;;;;;6.97;2.83;;;18.30;96.20;;;;;;5002168;28;20109;-51
2023/07/04 08:13:56;;;;;;;7.93;2.92;;;18.30;96.10;;;;;;4993326;28;20057;-50
2023/07/04 08:16:31;;;;;;;10.65;3.20;;;18.30;96.90;;;;;;4987277;28;20042;-52
2023/07/04 08:18:58;;;;;;;8.27;3.08;;;18.50;96.30;;;;;;5016829;28;20108;-53
2023/07/04 08:21:26;;;;;;;8.15;3.50;;;19.00;96.30;;;;;;5091662;28;20058;-52
2023/07/04 08:23:51;;;;;;;7.82;3.70;;;19.30;95.80;;;;;;5031941;28;20072;-53
2023/07/04 08:26:19;;;;;;;10.00;3.70;;;19.50;96.20;;;;;;4989346;28;20495;-52
2023/07/04 08:28:45;;;;;;;12.90;4.22;;;19.70;95.20;;;;;;4999363;28;20495;-51
2023/07/04 08:31:11;;;;;;;10.35;4.10;;;19.50;95.60;;;;;;4981964;28;20034;-51
2023/07/04 08:33:37;;;;;;;11.98;5.15;;;19.30;94.90;;;;;;4978156;28;20091;-50
2023/07/04 08:36:08;;;;;;;11.73;5.18;;;19.00;95.50;;;;;;4970863;28;20479;-50
2023/07/04 08:38:34;;;;;;;10.25;5.32;;;18.70;96.30;;;;;;4988026;28;20022;-51
2023/07/04 08:41:00;;;;;;;13.77;6.00;;;18.70;96.50;;;;;;4987044;28;20476;-51
2023/07/04 08:43:34;;;;;;;12.10;5.57;;;18.50;96.60;;;;;;4999554;28;20115;-50
2023/07/04 08:46:00;;;;;;;10.52;5.43;;;18.20;96.20;;;;;;5034428;28;20532;-52
2023/07/04 08:48:28;;;;;;;9.32;4.25;;;18.10;96.90;;;;;;5090043;28;20034;-51
2023/07/04 08:50:57;;;;;;;11.75;5.55;;;18.00;96.70;;;;;;5090215;28;20027;-51
2023/07/04 08:53:24;;;;;;;15.93;5.65;;;17.90;97.00;;;;;;5090291;28;20131;-50
2023/07/04 08:56:14;;;;;;;13.63;5.60;;;17.80;97.60;;;;;;5004294;28;20242;-52
2023/07/04 08:59:08;;;;;;;14.27;5.37;;;17.80;97.50;;;;;;4987225;28;20062;-52
2023/07/04 09:02:02;;;;;;;13.68;5.32;;;17.80;97.40;;;;;;5005454;28;20882;-52
2023/07/04 09:04:46;;;;;;;10.90;4.30;;;17.70;97.50;;;;;;4987445;28;20026;-52
2023/07/04 09:07:39;;;;;;;10.52;5.30;;;17.90;97.30;;;;;;4987822;28;20043;-51
2023/07/04 09:10:21;;;;;;;11.20;4.40;;;18.10;97.00;;;;;;4993182;28;20079;-52
2023/07/04 09:12:47;;;;;;;15.75;4.90;;;18.20;97.10;;;;;;4987711;28;20174;-52
2023/07/04 09:15:24;;;;;;;9.77;4.40;;;18.40;95.80;;;;;;5059768;28;20034;-51
2023/07/04 09:18:18;;;;;;;10.93;3.17;;;18.50;95.90;;;;;;4999402;28;20075;-51
2023/07/04 09:20:49;;;;;;;10.00;3.38;;;18.60;95.20;;;;;;4974572;28;20030;-52
2023/07/04 09:23:20;;;;;;;9.48;3.30;;;18.60;95.40;;;;;;4987852;28;20075;-51
2023/07/04 09:25:45;;;;;;;4.65;2.88;;;18.50;95.50;;;;;;4987554;28;20204;-51
2023/07/04 09:28:11;;;;;;;6.68;2.88;;;18.50;95.60;;;;;;4986755;28;20442;-51
2023/07/04 09:30:37;;;;;;;9.45;3.20;;;18.50;95.40;;;;;;4987638;28;20029;-52
2023/07/04 09:33:03;;;;;;;11.57;3.58;;;18.60;95.60;;;;;;4987621;28;20121;-51
2023/07/04 09:35:29;;;;;;;7.68;3.10;;;18.70;95.30;;;;;;4987305;28;20515;-52
2023/07/04 09:38:00;;;;;;;5.30;2.55;;;18.70;94.80;;;;;;4986738;28;20035;-52
2023/07/04 09:40:48;;;;;;;7.93;2.90;;;19.10;94.20;;;;;;4987488;28;20031;-52
2023/07/04 09:43:29;;;;;;;6.53;3.00;;;19.30;93.90;;;;;;4992951;28;20288;-51
2023/07/04 09:46:12;;;;;;;7.13;2.55;;;19.90;93.30;;;;;;5051009;28;20350;-52
2023/07/04 09:48:39;;;;;;;8.35;2.60;;;20.60;92.60;;;;;;5046082;28;20032;-52
2023/07/04 09:51:30;;;;;;;6.65;2.65;;;21.40;92.50;;;;;;5089574;28;20198;-52
2023/07/04 09:54:13;;;;;;;5.97;2.30;;;23.00;89.20;;;;;;5089551;28;20544;-53
2023/07/04 09:56:39;;;;;;;4.65;2.25;;;24.30;82.30;;;;;;5076535;28;20034;-54
2023/07/04 09:59:21;;;;;;;6.10;2.45;;;24.60;80.20;;;;;;4986239;28;20034;-53
2023/07/04 10:01:49;;;;;;;5.43;2.35;;;24.90;78.30;;;;;;5058189;28;20032;-54
2023/07/04 10:04:35;;;;;;;7.60;2.30;;;25.10;77.50;;;;;;5089359;28;20452;-54
2023/07/04 10:07:03;;;;;;;5.60;2.20;;;26.10;76.10;;;;;;5044199;28;20020;-54
2023/07/04 10:09:29;;;;;;;3.00;1.98;;;27.10;75.40;;;;;;5073564;28;20077;-54
2023/07/04 10:12:12;;;;;;;5.13;1.80;;;27.90;70.30;;;;;;5089550;28;20031;-54
2023/07/04 10:14:45;;;;;;;7.07;1.83;;;28.30;69.60;;;;;;5085611;28;20028;-54
2023/07/04 10:17:27;;;;;;;5.07;1.88;;;28.50;69.10;;;;;;4982313;28;20382;-54
2023/07/04 10:20:04;;;;;;;2.90;1.85;;;29.30;67.10;;;;;;5019566;28;20027;-54
2023/07/04 10:22:32;;;;;;;4.72;2.00;;;29.10;67.10;;;;;;5088596;28;20023;-54
2023/07/04 10:24:59;;;;;;;3.72;1.60;;;29.40;63.60;;;;;;5088848;28;20108;-54
2023/07/04 10:27:36;;;;;;;4.57;1.98;;;29.60;62.80;;;;;;5088092;28;20036;-54
2023/07/04 10:30:08;;;;;;;4.15;1.77;;;30.10;62.10;;;;;;4998501;28;20037;-54
2023/07/04 10:32:40;;;;;;;6.90;1.60;;;30.10;58.30;;;;;;4968835;28;20030;-54
2023/07/04 10:35:11;;;;;;;5.90;1.70;;;29.00;59.80;;;;;;4986298;28;20037;-54
2023/07/04 10:37:38;;;;;;;4.80;1.63;;;28.20;61.10;;;;;;4986318;28;20426;-53
2023/07/04 10:40:09;;;;;;;4.45;1.70;;;28.50;61.90;;;;;;4985664;28;20121;-54
2023/07/04 10:42:45;;;;;;;4.72;1.60;;;28.40;61.60;;;;;;4963521;28;20038;-54
2023/07/04 10:45:15;;;;;;;5.28;2.05;;;28.60;60.60;;;;;;4967200;28;20383;-54
2023/07/04 10:47:41;;;;;;;;;;;28.50;61.00;;;;;;4967069;28;20026;-54
2023/07/04 10:50:32;;;;;;;4.65;1.58;;;28.30;60.80;;;;;;4995603;28;20000;-54
2023/07/04 10:52:58;;;;;;;5.90;1.92;;;28.50;60.50;;;;;;5060787;28;20055;-54
2023/07/04 10:55:39;;;;;;;6.28;2.03;;;29.30;59.80;;;;;;5034762;28;20479;-54
2023/07/04 10:58:10;;;;;;;4.47;1.95;;;29.00;59.70;;;;;;4984730;28;20030;-54
2023/07/04 11:00:41;;;;;;;5.65;1.75;;;28.80;61.30;;;;;;4985601;28;20026;-54
2023/07/04 11:03:14;;;;;;;4.43;1.60;;;27.60;59.40;;;;;;4986140;28;20109;-53
2023/07/04 11:05:49;;;;;;;4.07;1.50;;;26.50;62.80;;;;;;4986238;28;20576;-53
2023/07/04 11:08:17;;;;;;;4.78;1.77;;;25.80;63.70;;;;;;4989210;28;20029;-53
2023/07/04 11:10:48;;;;;;;5.78;1.90;;;25.40;64.80;;;;;;4989115;28;20022;-53
2023/07/04 11:13:16;;;;;;;7.22;1.92;;;25.20;64.00;;;;;;4989876;28;20091;-53
2023/07/04 11:15:43;;;;;;;8.35;2.10;;;24.30;65.60;;;;;;4989605;28;20019;-53
2023/07/04 11:18:15;;;;;;;4.88;2.17;;;24.40;65.30;;;;;;4972184;28;20068;-53
2023/07/04 11:20:41;;;;;;;8.32;2.10;;;24.50;65.40;;;;;;5038772;28;20047;-53
2023/07/04 11:23:15;;;;;;;5.90;2.30;;;25.00;65.60;;;;;;5092262;28;20517;-53
2023/07/04 11:26:07;;;;;;;6.47;2.00;;;24.30;65.50;;;;;;5092004;28;20052;-53
2023/07/04 11:28:36;;;;;;;6.47;2.20;;;23.90;70.70;;;;;;5091663;28;20024;-52
2023/07/04 11:31:24;;;;;;;4.70;2.00;;;23.40;68.00;;;;;;5052393;28;20042;-53
2023/07/04 11:33:53;;;;;;;8.57;2.20;;;23.20;68.90;;;;;;4970009;28;20411;-52
2023/07/04 11:36:33;;;;;;;5.50;2.53;;;22.70;70.30;;;;;;4969782;28;20622;-53
2023/07/04 11:39:30;;;;;;;8.27;2.50;;;22.50;70.30;;;;;;4969969;28;20375;-52
2023/07/04 11:41:57;;;;;;;7.35;2.30;;;22.20;71.40;;;;;;4979884;28;20034;-52
2023/07/04 11:44:28;;;;;;;6.38;2.60;;;22.10;70.20;;;;;;4980030;28;20026;-52
2023/07/04 11:47:15;;;;;;;9.10;3.05;;;22.20;71.40;;;;;;4986302;28;20026;-52
2023/07/04 11:49:54;;;;;;;5.63;2.38;;;22.30;70.90;;;;;;4987572;28;20046;-52
2023/07/04 11:52:26;;;;;;;4.10;2.60;;;22.20;71.40;;;;;;4987863;28;20117;-52
2023/07/04 11:55:08;;;;;;;8.38;2.40;;;23.00;72.30;;;;;;4988740;28;20058;-53
2023/07/04 11:57:55;;;;;;;7.95;2.67;;;23.70;68.30;;;;;;4988660;28;20049;-52
2023/07/04 12:00:43;;;;;;;8.80;2.33;;;23.40;66.70;;;;;;4989113;28;20101;-53
2023/07/04 12:03:36;;;;;;;7.88;2.53;;;23.00;68.10;;;;;;4987482;28;20045;-53
2023/07/04 12:06:02;;;;;;;5.47;2.60;;;22.50;69.50;;;;;;4989163;28;20027;-52
2023/07/04 12:08:50;;;;;;;10.07;2.90;;;22.10;71.00;;;;;;4988556;28;20071;-52
2023/07/04 12:11:35;;;;;;;11.02;3.00;;;21.80;72.10;;;;;;4988671;28;20021;-52
2023/07/04 12:14:02;;;;;;;7.43;3.22;;;21.60;73.00;;;;;;4988466;28;20048;-52
2023/07/04 12:16:28;;;;;;;8.70;2.80;;;21.70;73.30;;;;;;4989021;28;20319;-52
2023/07/04 12:18:54;;;;;;;8.57;3.30;;;22.10;73.20;;;;;;4989535;28;20084;-53
2023/07/04 12:21:20;;;;;;;6.38;2.40;;;22.40;73.20;;;;;;5077040;28;20119;-51
2023/07/04 12:23:46;;;;;;;9.20;2.90;;;22.60;75.10;;;;;;4985483;28;20125;-52
2023/07/04 12:26:22;;;;;;;8.95;2.95;;;22.40;73.70;;;;;;4970572;28;20022;-52
2023/07/04 12:28:48;;;;;;;7.72;3.67;;;22.20;74.00;;;;;;4968685;28;20368;-52
2023/07/04 12:31:15;;;;;;;9.43;3.10;;;22.00;73.90;;;;;;4968982;28;20109;-53
2023/07/04 12:33:44;;;;;;;8.70;3.40;;;21.90;73.20;;;;;;4993725;28;20038;-52
2023/07/04 12:36:15;;;;;;;8.63;3.35;;;21.70;74.70;;;;;;4971692;28;20129;-52
2023/07/04 12:38:43;;;;;;;11.07;3.13;;;21.50;74.90;;;;;;5089924;28;20082;-51
2023/07/04 12:41:09;;;;;;;8.70;3.40;;;21.50;75.60;;;;;;5072249;28;20112;-52
2023/07/04 12:43:37;;;;;;;5.75;3.15;;;21.50;75.90;;;;;;5070937;28;20030;-53
2023/07/04 12:46:19;;;;;;;10.65;3.58;;;21.40;76.40;;;;;;5026269;28;20067;-52
2023/07/04 12:48:45;;;;;;;9.90;3.28;;;21.10;75.30;;;;;;5090026;28;20112;-52
2023/07/04 12:51:16;;;;;;;12.85;3.67;;;20.90;78.70;;;;;;5090427;28;20071;-51
2023/07/04 12:53:43;;;;;;;10.15;3.55;;;20.70;81.10;;;;;;5085999;28;20112;-52
2023/07/04 12:56:10;;;;;;;8.50;3.70;;;20.60;79.80;;;;;;5050560;28;20032;-50
2023/07/04 12:58:47;;;;;;;10.57;3.72;;;20.60;79.70;;;;;;5089984;28;20039;-51